Time;durP1;ratioP1;P1;durP2;ratioP2;P2;SDS_P1;SDS_P2;PMS_P1;PMS_P2;Temp;Humidity;BMP_temperature;BMP_pressure;BME280_temperature;BME280_humidity;BME280_pressure;Samples;Min_cycle;Max_cycle;Signal;HPM_P1;HPM_P2
2023/12/29 00:01:48;;;;;;;8.90;2.70;;;11.40;99.90;;;;;;5077359;28;20211;-72
2023/12/29 00:04:14;;;;;;;13.87;2.40;;;11.40;99.90;;;;;;5095479;28;20179;-73
2023/12/29 00:06:40;;;;;;;10.30;2.60;;;11.30;99.90;;;;;;5095405;28;20704;-73
2023/12/29 00:09:05;;;;;;;12.23;2.90;;;11.30;99.90;;;;;;5095395;28;20265;-73
2023/12/29 00:11:31;;;;;;;11.13;2.40;;;11.30;99.90;;;;;;5077175;28;20278;-72
2023/12/29 00:13:57;;;;;;;7.63;2.70;;;11.30;99.90;;;;;;5077174;28;20194;-74
2023/12/29 00:16:22;;;;;;;9.20;2.27;;;11.30;99.90;;;;;;5095363;28;20627;-72
2023/12/29 00:18:48;;;;;;;5.73;2.07;;;11.30;99.90;;;;;;5095368;28;20665;-72
2023/12/29 00:21:13;;;;;;;11.13;2.30;;;11.30;99.90;;;;;;5094938;28;20670;-73
2023/12/29 00:23:39;;;;;;;8.23;2.63;;;11.30;99.90;;;;;;5095227;28;20647;-72
2023/12/29 00:26:05;;;;;;;6.43;2.60;;;11.30;99.90;;;;;;5094565;28;20172;-72
2023/12/29 00:28:30;;;;;;;9.57;2.50;;;11.30;99.90;;;;;;5094404;28;20223;-72
2023/12/29 00:30:56;;;;;;;11.47;3.20;;;11.30;99.90;;;;;;5095123;28;20171;-74
2023/12/29 00:33:22;;;;;;;7.63;2.97;;;11.40;99.90;;;;;;5095000;28;20172;-72
2023/12/29 00:35:47;;;;;;;7.90;2.43;;;11.30;99.90;;;;;;5094588;28;20175;-73
2023/12/29 00:38:13;;;;;;;8.40;2.40;;;11.30;99.90;;;;;;5094882;28;20171;-74
2023/12/29 00:40:38;;;;;;;11.50;2.90;;;11.20;99.90;;;;;;5076750;28;20742;-72
2023/12/29 00:43:04;;;;;;;10.77;2.37;;;11.20;99.90;;;;;;5076798;28;20179;-73
2023/12/29 00:45:32;;;;;;;8.47;2.20;;;11.30;99.90;;;;;;5094770;28;20652;-73
2023/12/29 00:47:59;;;;;;;8.43;2.20;;;11.20;99.90;;;;;;5094717;28;20168;-74
2023/12/29 00:50:24;;;;;;;11.37;2.20;;;11.20;99.90;;;;;;5094473;28;20178;-72
2023/12/29 00:52:50;;;;;;;7.00;2.10;;;11.30;99.90;;;;;;5094643;28;20534;-73
2023/12/29 00:55:16;;;;;;;6.70;2.07;;;11.30;99.90;;;;;;5094649;28;20176;-73
2023/12/29 00:57:42;;;;;;;9.67;2.23;;;11.40;99.90;;;;;;5094448;28;20171;-73
2023/12/29 01:00:10;;;;;;;13.53;2.37;;;11.40;99.90;;;;;;5094486;28;20170;-73
2023/12/29 01:02:36;;;;;;;8.83;2.57;;;11.40;99.90;;;;;;5094412;28;20176;-73
2023/12/29 01:05:01;;;;;;;11.03;2.83;;;11.40;99.90;;;;;;5093979;28;20573;-73
2023/12/29 01:07:27;;;;;;;8.33;2.43;;;11.50;99.90;;;;;;5094519;28;20647;-72
2023/12/29 01:09:52;;;;;;;10.53;2.33;;;11.50;99.90;;;;;;5076142;28;20171;-73
2023/12/29 01:12:18;;;;;;;7.80;2.40;;;11.50;99.90;;;;;;5076018;28;20171;-72
2023/12/29 01:14:44;;;;;;;8.63;2.33;;;11.40;99.90;;;;;;5094186;28;20183;-73
2023/12/29 01:17:09;;;;;;;7.83;2.20;;;11.50;99.90;;;;;;5076017;28;20211;-73
2023/12/29 01:19:35;;;;;;;10.87;2.63;;;11.40;99.90;;;;;;5094022;28;20627;-73
2023/12/29 01:22:00;;;;;;;9.07;2.33;;;11.40;99.90;;;;;;5094122;28;20208;-72
2023/12/29 01:24:26;;;;;;;8.73;2.97;;;11.40;99.90;;;;;;5093968;28;20290;-72
2023/12/29 01:26:52;;;;;;;8.60;2.47;;;11.50;99.90;;;;;;5094020;28;20276;-73
2023/12/29 01:29:17;;;;;;;6.00;2.03;;;11.40;99.90;;;;;;5093794;28;20223;-72
2023/12/29 01:31:43;;;;;;;7.50;2.40;;;11.40;99.90;;;;;;5093833;28;20176;-72
2023/12/29 01:34:08;;;;;;;10.47;2.73;;;11.50;99.90;;;;;;5093645;28;20217;-73
2023/12/29 01:36:34;;;;;;;8.23;2.10;;;11.40;99.90;;;;;;5093923;28;20643;-72
2023/12/29 01:39:00;;;;;;;6.27;2.33;;;11.40;99.90;;;;;;5093934;28;20250;-72
2023/12/29 01:41:26;;;;;;;10.33;2.37;;;11.30;99.90;;;;;;5093661;28;20710;-73
2023/12/29 01:44:00;;;;;;;9.77;2.60;;;11.40;99.90;;;;;;5093609;28;20203;-73
2023/12/29 01:46:29;;;;;;;7.27;2.40;;;11.30;99.90;;;;;;5093322;28;20175;-73
2023/12/29 01:48:55;;;;;;;10.27;2.40;;;11.30;99.90;;;;;;5093850;28;20259;-72
2023/12/29 01:51:23;;;;;;;7.63;2.37;;;11.40;99.90;;;;;;5093826;28;20254;-73
2023/12/29 01:53:50;;;;;;;13.03;2.33;;;11.40;99.90;;;;;;5075432;28;20180;-73
2023/12/29 01:56:16;;;;;;;10.77;2.40;;;11.30;99.90;;;;;;5093649;28;20196;-73
2023/12/29 01:58:43;;;;;;;9.37;2.50;;;11.30;99.90;;;;;;5093571;28;20535;-72
2023/12/29 02:01:09;;;;;;;7.43;2.20;;;11.30;99.90;;;;;;5092874;28;20211;-72
2023/12/29 02:03:35;;;;;;;10.70;2.27;;;11.40;99.90;;;;;;5093604;28;20174;-74
2023/12/29 02:06:01;;;;;;;10.17;2.50;;;11.40;99.90;;;;;;5093455;28;20242;-72
2023/12/29 02:08:28;;;;;;;9.20;2.13;;;11.40;99.90;;;;;;5093533;28;20175;-71
2023/12/29 02:10:54;;;;;;;8.77;2.20;;;11.50;99.90;;;;;;5093353;28;20184;-72
2023/12/29 02:13:22;;;;;;;10.37;2.00;;;11.50;99.90;;;;;;5093188;28;20622;-74
2023/12/29 02:15:50;;;;;;;8.93;2.33;;;11.50;99.90;;;;;;5092972;28;20160;-71
2023/12/29 02:18:18;;;;;;;9.67;2.03;;;11.40;99.90;;;;;;5093468;28;20175;-72
2023/12/29 02:20:44;;;;;;;7.57;2.50;;;11.40;99.90;;;;;;5093239;28;20212;-73
2023/12/29 02:23:10;;;;;;;11.20;2.50;;;11.40;99.90;;;;;;5093210;28;20170;-73
2023/12/29 02:25:36;;;;;;;7.27;2.10;;;11.40;99.90;;;;;;5093200;28;20160;-72
2023/12/29 02:28:02;;;;;;;12.67;2.40;;;11.50;99.90;;;;;;5093064;28;20216;-72
2023/12/29 02:30:49;;;;;;;6.93;2.27;;;11.40;99.90;;;;;;5093094;28;20249;-73
2023/12/29 02:33:19;;;;;;;8.83;2.23;;;11.40;99.90;;;;;;5093211;28;20195;-72
2023/12/29 02:35:46;;;;;;;10.23;2.40;;;11.40;99.90;;;;;;5093280;28;20222;-72
2023/12/29 02:38:12;;;;;;;6.07;1.90;;;11.40;99.90;;;;;;5093328;28;20176;-72
2023/12/29 02:40:38;;;;;;;9.20;2.70;;;11.30;99.90;;;;;;5093044;28;20239;-71
2023/12/29 02:43:03;;;;;;;9.60;2.63;;;11.30;99.90;;;;;;5092919;28;20196;-72
2023/12/29 02:45:29;;;;;;;10.40;2.60;;;11.30;99.90;;;;;;5092753;28;20172;-72
2023/12/29 02:47:55;;;;;;;8.80;2.10;;;11.30;99.90;;;;;;5093209;28;20172;-72
2023/12/29 02:50:20;;;;;;;8.67;2.40;;;11.40;99.90;;;;;;5094806;28;20164;-72
2023/12/29 02:52:46;;;;;;;10.07;2.20;;;11.40;99.90;;;;;;5096859;28;20171;-72
2023/12/29 02:55:11;;;;;;;9.83;2.77;;;11.40;99.90;;;;;;5078687;28;20195;-72
2023/12/29 02:57:38;;;;;;;11.17;1.93;;;11.40;99.90;;;;;;5097043;28;20185;-73
2023/12/29 03:00:05;;;;;;;13.53;2.80;;;11.50;99.90;;;;;;5096590;28;20260;-73
2023/12/29 03:02:31;;;;;;;10.07;2.33;;;11.50;99.90;;;;;;5096690;28;20207;-71
2023/12/29 03:04:57;;;;;;;6.60;2.53;;;11.50;99.90;;;;;;5096934;28;20172;-71
2023/12/29 03:07:22;;;;;;;7.63;2.40;;;11.40;99.90;;;;;;5096787;28;20548;-72
2023/12/29 03:09:48;;;;;;;9.33;1.73;;;11.40;99.90;;;;;;5096518;28;20209;-72
2023/12/29 03:12:13;;;;;;;5.00;2.10;;;11.40;99.90;;;;;;5096335;28;20191;-73
2023/12/29 03:14:39;;;;;;;6.30;2.07;;;11.40;99.90;;;;;;5096198;28;20182;-71
2023/12/29 03:17:04;;;;;;;10.60;2.07;;;11.40;99.90;;;;;;5096743;28;20221;-72
2023/12/29 03:19:30;;;;;;;12.80;2.80;;;11.40;99.90;;;;;;5078418;28;20187;-72
2023/12/29 03:21:55;;;;;;;11.23;2.30;;;11.30;99.90;;;;;;5096352;28;20257;-72
2023/12/29 03:24:21;;;;;;;9.90;2.57;;;11.30;99.90;;;;;;5096370;28;20164;-72
2023/12/29 03:26:47;;;;;;;9.87;2.50;;;11.30;99.90;;;;;;5096454;28;20225;-71
2023/12/29 03:29:12;;;;;;;10.60;2.60;;;11.20;99.90;;;;;;5095687;28;20219;-71
2023/12/29 03:31:39;;;;;;;7.57;2.33;;;11.30;99.90;;;;;;5077954;28;20176;-72
2023/12/29 03:34:04;;;;;;;8.33;2.40;;;11.20;99.90;;;;;;5077993;28;20194;-71
2023/12/29 03:36:30;;;;;;;10.60;2.10;;;11.20;99.90;;;;;;5096299;28;20723;-71
2023/12/29 03:38:55;;;;;;;10.43;2.40;;;11.20;99.90;;;;;;5095920;28;20666;-71
2023/12/29 03:41:21;;;;;;;11.83;2.43;;;11.20;99.90;;;;;;5077682;28;20307;-73
2023/12/29 03:43:47;;;;;;;11.10;2.60;;;11.10;99.90;;;;;;5077558;28;20222;-72
2023/12/29 03:46:20;;;;;;;12.40;2.43;;;11.10;99.90;;;;;;5077819;28;20179;-72
2023/12/29 03:48:46;;;;;;;11.13;2.63;;;11.10;99.90;;;;;;5095865;28;20187;-71
2023/12/29 03:51:12;;;;;;;12.97;2.43;;;11.00;99.90;;;;;;5095751;28;20634;-72
2023/12/29 03:53:37;;;;;;;7.67;2.07;;;11.00;99.90;;;;;;5095602;28;20267;-72
2023/12/29 03:56:13;;;;;;;8.23;2.50;;;11.00;99.90;;;;;;5095782;28;20269;-72
2023/12/29 03:58:39;;;;;;;5.37;2.03;;;11.00;99.90;;;;;;5095410;28;20163;-72
2023/12/29 04:01:08;;;;;;;6.80;1.93;;;10.90;99.90;;;;;;5095434;28;20681;-72
2023/12/29 04:03:34;;;;;;;8.90;2.67;;;10.90;99.90;;;;;;5095738;28;20164;-72
2023/12/29 04:05:59;;;;;;;9.20;2.23;;;10.90;99.90;;;;;;5095445;28;20191;-72
2023/12/29 04:08:25;;;;;;;5.67;2.20;;;10.90;99.90;;;;;;5095579;28;20631;-72
2023/12/29 04:10:51;;;;;;;9.53;2.30;;;10.90;99.90;;;;;;5095423;28;20195;-72
2023/12/29 04:13:16;;;;;;;7.40;2.10;;;10.80;99.90;;;;;;5094934;28;20191;-72
2023/12/29 04:15:42;;;;;;;8.83;2.30;;;10.80;99.90;;;;;;5077247;28;20225;-72
2023/12/29 04:18:07;;;;;;;7.30;2.10;;;10.80;99.90;;;;;;5095039;28;20164;-72
2023/12/29 04:20:33;;;;;;;12.60;2.40;;;10.70;99.90;;;;;;5094705;28;20175;-72
2023/12/29 04:22:59;;;;;;;11.33;2.50;;;10.60;99.90;;;;;;5095307;28;20631;-72
2023/12/29 04:25:24;;;;;;;12.63;2.20;;;10.60;99.90;;;;;;5094966;28;20172;-72
2023/12/29 04:27:50;;;;;;;10.90;2.50;;;10.60;99.90;;;;;;5069213;28;20229;-71
2023/12/29 04:30:16;;;;;;;7.43;2.20;;;10.60;99.90;;;;;;5054814;28;20252;-72
2023/12/29 04:32:41;;;;;;;12.70;2.40;;;10.50;99.90;;;;;;5054568;28;20186;-71
2023/12/29 04:35:07;;;;;;;9.20;2.40;;;10.50;99.90;;;;;;5054411;28;20565;-72
2023/12/29 04:37:33;;;;;;;13.53;2.67;;;10.60;99.90;;;;;;5054471;28;20158;-72
2023/12/29 04:39:58;;;;;;;10.13;2.33;;;10.50;99.90;;;;;;5054871;28;20566;-71
2023/12/29 04:42:24;;;;;;;9.60;2.30;;;10.70;99.90;;;;;;5054244;28;20213;-71
2023/12/29 04:44:49;;;;;;;16.97;2.80;;;10.70;99.90;;;;;;5054188;28;20173;-71
2023/12/29 04:47:16;;;;;;;13.93;2.70;;;10.70;99.90;;;;;;5054435;28;20318;-72
2023/12/29 04:49:42;;;;;;;9.40;2.10;;;10.70;99.90;;;;;;5054294;28;20204;-71
2023/12/29 04:52:07;;;;;;;8.20;2.77;;;10.80;99.90;;;;;;5054035;28;20659;-72
2023/12/29 04:54:33;;;;;;;8.80;2.57;;;10.80;99.90;;;;;;5054169;28;20173;-72
2023/12/29 04:56:59;;;;;;;8.43;2.40;;;10.80;99.90;;;;;;5053359;28;20272;-72
2023/12/29 04:59:24;;;;;;;6.27;2.00;;;10.80;99.90;;;;;;5054364;28;20260;-72
2023/12/29 05:01:50;;;;;;;7.57;2.13;;;10.80;99.90;;;;;;5053843;28;20220;-73
2023/12/29 05:04:16;;;;;;;14.20;2.57;;;10.70;99.90;;;;;;5053848;28;20681;-72
2023/12/29 05:06:42;;;;;;;10.73;2.63;;;10.70;99.90;;;;;;5054102;28;20263;-73
2023/12/29 05:09:08;;;;;;;9.20;2.33;;;10.70;99.90;;;;;;5054033;28;20200;-72
2023/12/29 05:11:33;;;;;;;9.10;2.50;;;10.70;99.90;;;;;;5053395;28;20207;-72
2023/12/29 05:13:59;;;;;;;8.57;2.67;;;10.60;99.90;;;;;;5052933;28;20177;-72
2023/12/29 05:16:24;;;;;;;9.37;2.37;;;10.60;99.90;;;;;;5053702;28;20200;-72
2023/12/29 05:18:50;;;;;;;14.47;2.83;;;10.70;99.90;;;;;;5053488;28;20165;-71
2023/12/29 05:21:17;;;;;;;10.80;2.87;;;10.70;99.90;;;;;;5053416;28;20216;-73
2023/12/29 05:23:44;;;;;;;11.53;2.57;;;10.70;99.90;;;;;;5053668;28;20649;-72
2023/12/29 05:26:10;;;;;;;10.50;2.23;;;10.70;99.90;;;;;;5053176;28;20161;-72
2023/12/29 05:28:36;;;;;;;11.73;2.63;;;10.70;99.90;;;;;;5072861;28;20642;-73
2023/12/29 05:31:03;;;;;;;9.33;2.43;;;10.80;99.90;;;;;;5093222;28;20169;-72
2023/12/29 05:33:33;;;;;;;15.83;2.80;;;10.70;99.90;;;;;;5093470;28;20160;-72
2023/12/29 05:36:04;;;;;;;3.80;1.77;;;10.80;99.90;;;;;;5093751;28;20266;-72
2023/12/29 05:38:31;;;;;;;10.93;2.50;;;10.70;99.90;;;;;;5093353;28;20172;-72
2023/12/29 05:40:57;;;;;;;10.43;2.57;;;10.70;99.90;;;;;;5075482;28;20680;-71
2023/12/29 05:43:22;;;;;;;11.10;2.27;;;10.70;99.90;;;;;;5093420;28;20167;-73
2023/12/29 05:45:48;;;;;;;12.67;2.60;;;10.60;99.90;;;;;;5092882;28;20168;-73
2023/12/29 05:48:13;;;;;;;11.27;2.63;;;10.60;99.90;;;;;;5092808;28;20225;-71
2023/12/29 05:50:39;;;;;;;8.47;2.60;;;10.70;99.90;;;;;;5092812;28;20180;-71
2023/12/29 05:53:05;;;;;;;14.77;3.37;;;10.70;99.90;;;;;;5092630;28;20160;-72
2023/12/29 05:55:31;;;;;;;10.77;2.50;;;10.70;99.90;;;;;;5093212;28;20244;-73
2023/12/29 05:57:57;;;;;;;13.23;3.00;;;10.70;99.90;;;;;;5093036;28;20262;-73
2023/12/29 06:00:22;;;;;;;9.80;2.30;;;10.70;99.90;;;;;;5092827;28;20168;-72
2023/12/29 06:02:48;;;;;;;12.13;2.77;;;10.60;99.90;;;;;;5092948;28;20649;-73
2023/12/29 06:05:14;;;;;;;6.67;2.67;;;10.60;99.90;;;;;;5092829;28;20628;-73
2023/12/29 06:07:40;;;;;;;7.67;2.43;;;10.50;99.90;;;;;;5092885;28;20647;-72
2023/12/29 06:10:06;;;;;;;11.17;2.77;;;10.40;99.90;;;;;;5092767;28;20164;-72
2023/12/29 06:12:32;;;;;;;14.43;2.67;;;10.20;99.90;;;;;;5093051;28;20175;-73
2023/12/29 06:14:57;;;;;;;8.83;2.77;;;10.20;99.90;;;;;;5092706;28;20160;-72
2023/12/29 06:17:23;;;;;;;12.50;2.67;;;10.20;99.90;;;;;;5092711;28;20172;-73
2023/12/29 06:19:48;;;;;;;8.97;2.70;;;10.10;99.90;;;;;;5092396;28;20167;-72
2023/12/29 06:22:14;;;;;;;12.03;2.60;;;10.00;99.90;;;;;;5074108;28;20595;-73
2023/12/29 06:24:40;;;;;;;13.40;2.87;;;10.00;99.90;;;;;;5093201;28;20199;-72
2023/12/29 06:27:08;;;;;;;9.93;2.50;;;10.10;99.90;;;;;;5097044;28;20186;-72
2023/12/29 06:29:34;;;;;;;9.50;2.97;;;10.00;99.90;;;;;;5096648;28;20227;-72
2023/12/29 06:31:59;;;;;;;7.80;2.10;;;10.00;99.90;;;;;;5096947;28;20561;-73
2023/12/29 06:34:25;;;;;;;11.03;2.93;;;10.00;99.90;;;;;;5096544;28;20171;-72
2023/12/29 06:36:51;;;;;;;10.40;2.90;;;10.00;99.90;;;;;;5078508;28;20207;-73
2023/12/29 06:39:16;;;;;;;10.53;2.50;;;10.00;99.90;;;;;;5096897;28;20224;-73
2023/12/29 06:41:42;;;;;;;11.13;2.60;;;10.00;99.90;;;;;;5096760;28;20284;-72
2023/12/29 06:44:08;;;;;;;10.27;2.43;;;10.00;99.90;;;;;;5096421;28;20214;-72
2023/12/29 06:46:33;;;;;;;14.83;3.00;;;10.00;99.90;;;;;;5078134;28;20228;-73
2023/12/29 06:48:59;;;;;;;9.73;2.87;;;10.00;99.90;;;;;;5096340;28;20176;-73
2023/12/29 06:51:24;;;;;;;10.33;1.77;;;10.00;99.90;;;;;;5095964;28;20183;-72
2023/12/29 06:53:50;;;;;;;11.97;2.40;;;10.00;99.90;;;;;;5096275;28;20168;-72
2023/12/29 06:56:17;;;;;;;9.40;2.50;;;10.00;99.90;;;;;;5096320;28;20247;-73
2023/12/29 06:58:44;;;;;;;10.03;2.30;;;10.00;99.90;;;;;;5095846;28;20628;-73
2023/12/29 07:01:10;;;;;;;8.87;2.40;;;10.00;99.90;;;;;;5095911;28;20199;-72
2023/12/29 07:03:35;;;;;;;12.13;2.30;;;10.00;99.90;;;;;;5095750;28;20164;-72
2023/12/29 07:06:01;;;;;;;9.43;2.50;;;10.00;99.90;;;;;;5095405;28;20233;-73
2023/12/29 07:08:27;;;;;;;13.13;2.57;;;10.10;99.90;;;;;;5096168;28;20172;-73
2023/12/29 07:10:53;;;;;;;10.53;2.73;;;10.00;99.90;;;;;;5095378;28;20186;-72
2023/12/29 07:13:21;;;;;;;11.40;2.70;;;10.10;99.90;;;;;;5077034;28;20168;-74
2023/12/29 07:15:48;;;;;;;7.07;2.33;;;10.00;99.90;;;;;;5096000;28;20531;-72
2023/12/29 07:18:14;;;;;;;11.23;2.40;;;10.00;99.90;;;;;;5096080;28;20642;-72
2023/12/29 07:20:40;;;;;;;8.90;2.10;;;10.00;99.90;;;;;;5095166;28;20172;-72
2023/12/29 07:23:05;;;;;;;10.23;2.30;;;10.00;99.90;;;;;;5095245;28;20172;-72
2023/12/29 07:25:31;;;;;;;7.37;2.60;;;10.00;99.90;;;;;;5095516;28;20250;-71
2023/12/29 07:27:57;;;;;;;6.33;2.20;;;10.00;99.90;;;;;;5095574;28;20219;-71
2023/12/29 07:30:22;;;;;;;7.33;2.07;;;10.00;99.90;;;;;;5096082;28;20174;-71
2023/12/29 07:32:48;;;;;;;8.87;2.60;;;10.00;99.90;;;;;;5095031;28;20192;-70
2023/12/29 07:35:17;;;;;;;11.93;3.07;;;10.00;99.90;;;;;;5094992;28;20578;-70
2023/12/29 07:37:46;;;;;;;6.27;2.37;;;10.10;99.90;;;;;;5095728;28;20176;-70
2023/12/29 07:40:13;;;;;;;8.20;2.53;;;10.10;99.90;;;;;;5095846;28;20183;-71
2023/12/29 07:42:43;;;;;;;9.10;2.47;;;10.10;99.90;;;;;;5095330;28;20252;-71
2023/12/29 07:45:09;;;;;;;10.10;2.63;;;10.00;99.90;;;;;;5094990;28;20181;-72
2023/12/29 07:47:34;;;;;;;14.00;3.17;;;10.10;99.90;;;;;;5094854;28;20286;-70
2023/12/29 07:50:01;;;;;;;10.97;2.60;;;10.10;99.90;;;;;;5094274;28;20690;-72
2023/12/29 07:52:27;;;;;;;10.53;2.60;;;10.10;99.90;;;;;;5095514;28;20170;-71
2023/12/29 07:54:52;;;;;;;11.73;2.20;;;10.10;99.90;;;;;;5094954;28;20262;-71
2023/12/29 07:57:18;;;;;;;8.13;2.47;;;10.10;99.90;;;;;;5094634;28;20168;-71
2023/12/29 07:59:43;;;;;;;11.07;3.17;;;10.10;99.90;;;;;;5095458;28;20627;-72
2023/12/29 08:02:09;;;;;;;10.47;3.20;;;10.10;99.90;;;;;;5095176;28;20296;-71
2023/12/29 08:04:35;;;;;;;10.50;2.50;;;10.10;99.90;;;;;;5094770;28;20624;-73
2023/12/29 08:07:00;;;;;;;15.17;3.13;;;10.10;99.90;;;;;;5095440;28;20174;-72
2023/12/29 08:09:26;;;;;;;6.40;2.60;;;10.10;99.90;;;;;;5095259;28;20168;-71
2023/12/29 08:11:51;;;;;;;11.57;2.77;;;10.10;99.90;;;;;;5094377;28;20203;-71
2023/12/29 08:14:17;;;;;;;11.60;2.50;;;10.00;99.90;;;;;;5094938;28;20248;-71
2023/12/29 08:16:43;;;;;;;13.33;2.70;;;10.10;99.90;;;;;;5095064;28;20680;-71
2023/12/29 08:19:09;;;;;;;11.40;2.50;;;10.20;99.90;;;;;;5094163;28;20168;-71
2023/12/29 08:21:35;;;;;;;9.83;2.47;;;10.20;99.90;;;;;;5094736;28;20200;-71
2023/12/29 08:24:01;;;;;;;13.07;2.80;;;10.20;99.90;;;;;;5094015;28;20172;-71
2023/12/29 08:26:27;;;;;;;16.67;2.87;;;10.20;99.90;;;;;;5093627;28;20164;-70
2023/12/29 08:28:52;;;;;;;12.43;2.83;;;10.20;99.90;;;;;;5076349;28;20709;-71
2023/12/29 08:31:23;;;;;;;13.17;2.47;;;10.20;99.90;;;;;;5094210;28;20203;-72
2023/12/29 08:33:48;;;;;;;12.83;2.87;;;10.20;99.90;;;;;;5094028;28;20274;-72
2023/12/29 08:36:17;;;;;;;7.87;2.97;;;10.30;99.90;;;;;;5093532;28;20207;-72
2023/12/29 08:38:43;;;;;;;8.27;2.63;;;10.30;99.90;;;;;;5094088;28;20183;-72
2023/12/29 08:41:08;;;;;;;8.33;2.80;;;10.40;99.90;;;;;;5093640;28;20215;-71
2023/12/29 08:43:36;;;;;;;9.90;2.13;;;10.40;99.90;;;;;;5094144;28;20183;-71
2023/12/29 08:46:01;;;;;;;11.27;3.00;;;10.40;99.90;;;;;;5093939;28;20179;-73
2023/12/29 08:48:27;;;;;;;11.00;2.80;;;10.50;99.90;;;;;;5092754;28;20509;-71
2023/12/29 08:50:52;;;;;;;11.47;2.43;;;10.50;99.90;;;;;;5074997;28;20176;-71
2023/12/29 08:53:18;;;;;;;12.17;3.03;;;10.50;99.90;;;;;;5094344;28;20537;-71
2023/12/29 08:55:44;;;;;;;8.87;2.60;;;10.60;99.90;;;;;;5093152;28;20232;-71
2023/12/29 08:58:09;;;;;;;9.70;2.87;;;10.60;99.90;;;;;;5093814;28;20168;-72
2023/12/29 09:00:35;;;;;;;11.97;2.60;;;10.60;99.90;;;;;;5093885;28;20176;-72
2023/12/29 09:03:00;;;;;;;9.70;2.87;;;10.60;99.90;;;;;;5075213;28;20172;-70
2023/12/29 09:05:26;;;;;;;8.77;2.60;;;10.50;99.90;;;;;;5093563;28;20175;-71
2023/12/29 09:07:52;;;;;;;11.10;2.27;;;10.50;99.90;;;;;;5076042;28;20175;-72
2023/12/29 09:10:17;;;;;;;6.77;2.47;;;10.60;99.90;;;;;;5093423;28;20215;-72
2023/12/29 09:12:43;;;;;;;8.53;2.30;;;10.50;99.90;;;;;;5075130;28;20176;-71
2023/12/29 09:15:10;;;;;;;9.27;2.50;;;10.50;99.90;;;;;;5093940;28;20199;-71
2023/12/29 09:17:35;;;;;;;10.77;2.30;;;10.50;99.90;;;;;;5092938;28;20172;-71
2023/12/29 09:20:02;;;;;;;12.47;2.60;;;10.70;99.90;;;;;;5093263;28;20175;-71
2023/12/29 09:22:27;;;;;;;12.30;2.73;;;10.70;99.90;;;;;;5093258;28;20341;-71
2023/12/29 09:24:54;;;;;;;12.03;2.63;;;10.70;99.90;;;;;;5093553;28;20210;-70
2023/12/29 09:27:20;;;;;;;8.13;2.70;;;10.60;99.90;;;;;;5093272;28;20155;-72
2023/12/29 09:29:46;;;;;;;8.03;2.43;;;10.60;99.90;;;;;;5093150;28;20582;-72
2023/12/29 09:32:11;;;;;;;8.30;2.60;;;10.60;99.90;;;;;;5092993;28;20171;-72
2023/12/29 09:34:37;;;;;;;12.87;2.90;;;10.60;99.90;;;;;;5093206;28;20223;-72
2023/12/29 09:37:02;;;;;;;7.50;2.37;;;10.70;99.90;;;;;;5093210;28;20650;-73
2023/12/29 09:39:28;;;;;;;11.10;2.90;;;10.70;99.90;;;;;;5092662;28;20172;-71
2023/12/29 09:42:00;;;;;;;9.57;2.70;;;10.70;99.90;;;;;;5093130;28;20207;-72
2023/12/29 09:44:28;;;;;;;6.77;2.37;;;10.70;99.90;;;;;;5093680;28;20163;-72
2023/12/29 09:46:54;;;;;;;8.40;2.30;;;10.70;99.90;;;;;;5092825;28;20221;-72
2023/12/29 09:49:21;;;;;;;7.97;2.67;;;10.70;99.90;;;;;;5093310;28;20177;-71
2023/12/29 09:51:48;;;;;;;8.40;2.77;;;10.70;99.90;;;;;;5092727;28;20160;-71
2023/12/29 09:54:15;;;;;;;7.90;2.50;;;10.70;99.90;;;;;;5093149;28;20612;-71
2023/12/29 09:56:41;;;;;;;8.13;2.60;;;10.70;99.90;;;;;;5093255;28;20196;-72
2023/12/29 09:59:09;;;;;;;7.13;3.00;;;10.70;99.90;;;;;;5092202;28;20251;-72
2023/12/29 10:01:37;;;;;;;6.77;2.40;;;10.70;99.90;;;;;;5092817;28;20208;-70
2023/12/29 10:04:03;;;;;;;11.47;3.07;;;10.70;99.90;;;;;;5092930;28;20172;-72
2023/12/29 10:06:34;;;;;;;9.53;2.73;;;10.80;99.90;;;;;;5092456;28;20187;-72
2023/12/29 10:09:03;;;;;;;9.13;2.90;;;10.80;99.90;;;;;;5092664;28;20229;-72
2023/12/29 10:11:31;;;;;;;7.63;2.63;;;10.90;99.90;;;;;;5092926;28;20212;-72
2023/12/29 10:14:03;;;;;;;12.47;2.80;;;10.80;99.90;;;;;;5073999;28;20171;-73
2023/12/29 10:16:37;;;;;;;11.17;2.70;;;10.90;99.90;;;;;;5092775;28;20236;-72
2023/12/29 10:19:33;;;;;;;10.70;2.37;;;11.00;99.90;;;;;;5092044;28;20684;-72
2023/12/29 10:22:20;;;;;;;9.47;2.80;;;11.10;99.90;;;;;;5092224;28;20303;-73
2023/12/29 10:24:46;;;;;;;5.07;2.50;;;11.00;99.90;;;;;;5092534;28;20176;-73
2023/12/29 10:27:13;;;;;;;10.60;3.10;;;11.00;99.90;;;;;;5092630;28;20688;-72
2023/12/29 10:29:38;;;;;;;7.77;2.70;;;11.00;99.90;;;;;;5091980;28;20712;-72
2023/12/29 10:32:04;;;;;;;10.20;2.73;;;11.10;99.90;;;;;;5092476;28;20262;-72
2023/12/29 10:34:31;;;;;;;7.07;2.73;;;11.20;99.90;;;;;;5092596;28;20179;-73
2023/12/29 10:37:06;;;;;;;8.77;3.20;;;11.30;99.90;;;;;;5092484;28;20259;-73
2023/12/29 10:39:32;;;;;;;8.20;2.47;;;11.30;99.90;;;;;;5093066;28;20634;-73
2023/12/29 10:42:06;;;;;;;12.43;2.67;;;11.30;99.90;;;;;;5092367;28;20195;-74
2023/12/29 10:44:33;;;;;;;13.13;2.70;;;11.40;99.90;;;;;;5092415;28;20160;-73
2023/12/29 10:46:58;;;;;;;8.67;2.57;;;11.30;99.90;;;;;;5092085;28;20199;-75
2023/12/29 10:49:24;;;;;;;8.10;2.50;;;11.30;99.90;;;;;;5091881;28;20612;-74
2023/12/29 10:51:50;;;;;;;8.57;2.47;;;11.30;99.90;;;;;;5092681;28;20178;-73
2023/12/29 10:54:24;;;;;;;11.00;2.77;;;11.30;99.90;;;;;;5092379;28;20655;-74
2023/12/29 10:57:02;;;;;;;13.17;2.73;;;11.30;99.90;;;;;;5092574;28;20163;-73
2023/12/29 10:59:28;;;;;;;7.70;2.40;;;11.30;99.90;;;;;;5091781;28;20176;-74
2023/12/29 11:01:54;;;;;;;8.40;2.30;;;11.30;99.90;;;;;;5092429;28;20207;-74
2023/12/29 11:04:23;;;;;;;6.10;2.57;;;11.20;99.90;;;;;;5092360;28;20186;-73
2023/12/29 11:06:51;;;;;;;8.10;2.43;;;11.20;99.90;;;;;;5074144;28;20699;-74
2023/12/29 11:09:34;;;;;;;8.27;2.47;;;11.20;99.90;;;;;;5092203;28;20156;-74
2023/12/29 11:12:01;;;;;;;7.07;2.47;;;11.30;99.90;;;;;;5094628;28;20244;-73
2023/12/29 11:14:30;;;;;;;6.77;2.27;;;11.30;99.90;;;;;;5077162;28;20171;-73
2023/12/29 11:16:56;;;;;;;8.13;2.53;;;11.40;99.90;;;;;;5095868;28;20176;-74
2023/12/29 11:19:22;;;;;;;6.90;2.67;;;11.40;99.90;;;;;;5095998;28;20191;-74
2023/12/29 11:21:54;;;;;;;6.27;2.40;;;11.50;99.90;;;;;;5095691;28;20212;-73
2023/12/29 11:24:20;;;;;;;5.27;2.40;;;11.60;99.90;;;;;;5086193;28;20472;-75
2023/12/29 11:26:47;;;;;;;8.73;2.23;;;11.70;99.90;;;;;;5086152;28;20190;-73
2023/12/29 11:29:13;;;;;;;8.40;2.50;;;11.70;99.90;;;;;;5093700;28;20219;-74
2023/12/29 11:31:39;;;;;;;11.23;2.10;;;11.70;99.90;;;;;;5080930;28;20259;-74
2023/12/29 11:34:12;;;;;;;6.40;2.43;;;11.70;99.90;;;;;;5090962;28;20643;-73
2023/12/29 11:36:43;;;;;;;8.50;2.70;;;11.80;99.90;;;;;;5095183;28;20164;-74
2023/12/29 11:39:29;;;;;;;8.67;2.60;;;11.80;99.90;;;;;;5095452;28;20602;-74
2023/12/29 11:42:37;;;;;;;5.60;2.47;;;11.80;99.90;;;;;;5075652;28;20743;-75
2023/12/29 11:45:35;;;;;;;9.30;2.30;;;11.80;99.90;;;;;;5024477;28;20372;-74
2023/12/29 11:48:02;;;;;;;7.97;2.37;;;11.70;99.90;;;;;;5011657;28;20229;-72
2023/12/29 11:50:36;;;;;;;8.90;2.47;;;11.70;99.90;;;;;;5011626;28;20174;-74
2023/12/29 11:53:02;;;;;;;9.60;2.77;;;11.80;99.90;;;;;;5012566;28;20167;-73
2023/12/29 11:55:30;;;;;;;5.63;2.40;;;11.80;99.90;;;;;;5011930;28;20221;-73
2023/12/29 11:57:56;;;;;;;4.80;1.90;;;11.80;99.90;;;;;;5011919;28;20179;-74
2023/12/29 12:00:44;;;;;;;8.20;2.13;;;11.70;99.90;;;;;;5011871;28;20178;-73
2023/12/29 12:03:19;;;;;;;8.63;2.07;;;11.70;99.90;;;;;;4997123;28;20182;-74
2023/12/29 12:05:45;;;;;;;7.03;2.27;;;11.70;99.90;;;;;;5012176;28;20162;-74
2023/12/29 12:08:29;;;;;;;5.77;1.97;;;11.60;99.90;;;;;;5012689;28;20221;-74
2023/12/29 12:10:56;;;;;;;5.83;2.23;;;11.60;99.90;;;;;;5011542;28;20190;-73
2023/12/29 12:13:45;;;;;;;9.10;2.50;;;11.60;99.90;;;;;;5011940;28;20693;-74
2023/12/29 12:16:42;;;;;;;6.90;2.33;;;11.50;99.90;;;;;;5019917;28;20182;-75
2023/12/29 12:19:08;;;;;;;8.70;2.70;;;11.40;99.90;;;;;;4996958;28;20183;-74
2023/12/29 12:21:35;;;;;;;8.57;2.77;;;11.30;99.90;;;;;;5075031;28;20697;-75
2023/12/29 12:24:03;;;;;;;10.80;3.73;;;11.20;99.90;;;;;;5094319;28;20199;-73
2023/12/29 12:26:31;;;;;;;10.07;2.87;;;11.20;99.90;;;;;;5093700;28;20199;-73
2023/12/29 12:28:57;;;;;;;6.67;2.70;;;11.10;99.90;;;;;;5093210;28;20223;-75
2023/12/29 12:31:23;;;;;;;8.70;2.43;;;11.10;99.90;;;;;;5093574;28;20160;-74
2023/12/29 12:33:56;;;;;;;10.53;2.70;;;11.10;99.90;;;;;;5093816;28;20179;-75
2023/12/29 12:36:22;;;;;;;8.67;2.60;;;11.00;99.90;;;;;;5093706;28;20170;-73
2023/12/29 12:38:55;;;;;;;7.33;2.80;;;11.00;99.90;;;;;;5093671;28;20200;-72
2023/12/29 12:41:22;;;;;;;8.07;2.50;;;11.00;99.90;;;;;;5092395;28;20187;-73
2023/12/29 12:44:10;;;;;;;7.00;2.70;;;11.00;99.90;;;;;;5093474;28;20183;-72